Terminal Aerodrome Forecast
Issued by NWS

Home | Current Version | Previous Version | Text Only | Print | Product List | Glossary On
Versions: 1 2 3 4 5 6 7 8 9 10 11 12 13 14 15 16 17 18 19 20
254
FTAK31 PAJN 231722
TAFAKT
TAF
PAKT 231722Z 2318/2418 34008KT P6SM VCSH SCT005 OVC020
      TEMPO 2318/2320 4SM -RA BR OVC006
     FM232000 33007KT P6SM -SHRA SCT008 BKN015 OVC035
     FM232200 31006KT P6SM VCSH SCT015 BKN035 BKN100
     FM240600 32006KT P6SM SCT015 SCT040
      AMD LTD TO CLD VIS AND WIND 2406/2415=

USA.gov is the U.S. government's official web portal to all federal, state and local government web resources and services.